Time;durP1;ratioP1;P1;durP2;ratioP2;P2;SDS_P1;SDS_P2;PMS_P1;PMS_P2;Temp;Humidity;BMP_temperature;BMP_pressure;BME280_temperature;BME280_humidity;BME280_pressure;Samples;Min_cycle;Max_cycle;Signal;HPM_P1;HPM_P2
2021/09/07 00:00:33;;;;;;;10.20;9.20;;;17.40;97.70;;;;;;6177232;28;20477;-60
2021/09/07 00:03:37;;;;;;;7.70;7.00;;;17.40;97.80;;;;;;6177001;28;20488;-61
2021/09/07 00:06:41;;;;;;;7.50;6.80;;;17.40;97.90;;;;;;6176999;28;20469;-59
2021/09/07 00:09:44;;;;;;;9.37;8.47;;;17.40;98.00;;;;;;6177209;28;20469;-61
2021/09/07 00:12:47;;;;;;;7.87;7.07;;;17.30;97.90;;;;;;6207606;23;20477;-60
2021/09/07 00:15:50;;;;;;;8.67;7.70;;;17.30;98.00;;;;;;6200999;28;20538;-59
2021/09/07 00:18:55;;;;;;;9.40;7.90;;;17.30;98.00;;;;;;6200864;28;20473;-60
2021/09/07 00:21:58;;;;;;;11.00;8.07;;;17.20;98.10;;;;;;6201090;28;20480;-60
2021/09/07 00:25:01;;;;;;;7.90;6.80;;;17.20;98.20;;;;;;6176589;28;20473;-58
2021/09/07 00:28:05;;;;;;;8.43;7.60;;;17.20;98.20;;;;;;6176907;28;20469;-60
2021/09/07 00:31:08;;;;;;;10.20;8.23;;;17.20;98.20;;;;;;6199777;28;20484;-59
2021/09/07 00:34:13;;;;;;;9.13;7.17;;;17.20;98.20;;;;;;6200802;28;20473;-59
2021/09/07 00:37:16;;;;;;;9.47;7.63;;;17.10;98.30;;;;;;6200587;28;20992;-58
2021/09/07 00:40:19;;;;;;;8.80;7.80;;;17.10;98.40;;;;;;6200658;28;20543;-58
2021/09/07 00:43:22;;;;;;;8.30;7.30;;;17.00;98.60;;;;;;6204766;28;20476;-59
2021/09/07 00:46:25;;;;;;;8.93;7.43;;;17.00;98.60;;;;;;6205344;28;20862;-59
2021/09/07 00:49:31;;;;;;;9.83;7.53;;;17.10;98.70;;;;;;6205496;28;20476;-60
2021/09/07 00:52:35;;;;;;;8.07;7.27;;;17.10;98.70;;;;;;6205065;28;20477;-60
2021/09/07 00:55:39;;;;;;;10.30;7.70;;;17.10;98.70;;;;;;6205455;28;20481;-58
2021/09/07 00:58:43;;;;;;;9.03;7.43;;;17.10;98.80;;;;;;6204690;28;20804;-58
2021/09/07 01:01:47;;;;;;;9.63;7.70;;;17.10;98.70;;;;;;6205266;28;20475;-59
2021/09/07 01:04:52;;;;;;;10.70;7.90;;;17.20;98.70;;;;;;6205130;28;20916;-59
2021/09/07 01:07:56;;;;;;;8.73;7.63;;;17.20;98.70;;;;;;6203035;28;20444;-59
2021/09/07 01:10:59;;;;;;;8.93;7.60;;;17.20;99.00;;;;;;6204336;28;20468;-61
2021/09/07 01:14:02;;;;;;;8.77;7.97;;;17.20;98.90;;;;;;6214120;28;20479;-61
2021/09/07 01:17:12;;;;;;;9.00;7.80;;;17.20;99.10;;;;;;6205106;28;20467;-61
2021/09/07 01:20:16;;;;;;;8.83;8.03;;;17.10;99.00;;;;;;6211324;28;20819;-62
2021/09/07 01:23:20;;;;;;;12.07;8.87;;;17.10;99.20;;;;;;6204752;28;20477;-61
2021/09/07 01:26:24;;;;;;;9.70;8.67;;;17.00;99.40;;;;;;6213597;28;20472;-61
2021/09/07 01:29:27;;;;;;;8.30;7.00;;;17.00;99.50;;;;;;6210526;28;20469;-61
2021/09/07 01:32:31;;;;;;;8.53;7.50;;;17.00;99.50;;;;;;6210123;28;20475;-62
2021/09/07 01:35:34;;;;;;;9.60;7.90;;;16.90;99.50;;;;;;6216821;28;20467;-61
2021/09/07 01:38:37;;;;;;;8.93;8.17;;;16.90;99.60;;;;;;6216126;28;20478;-61
2021/09/07 01:41:41;;;;;;;8.27;6.93;;;16.90;99.60;;;;;;6214945;28;20483;-61
2021/09/07 01:44:45;;;;;;;7.63;6.90;;;16.80;99.60;;;;;;6211649;28;20472;-61
2021/09/07 01:47:50;;;;;;;9.37;7.90;;;16.70;99.70;;;;;;6202926;28;20912;-61
2021/09/07 01:50:54;;;;;;;8.10;7.23;;;16.70;99.90;;;;;;6203924;28;20473;-61
2021/09/07 01:53:57;;;;;;;9.03;8.23;;;16.70;99.90;;;;;;6203787;28;20787;-61
2021/09/07 01:57:01;;;;;;;12.40;7.33;;;16.60;99.90;;;;;;6224186;28;20484;-61
2021/09/07 02:00:05;;;;;;;9.80;8.20;;;16.50;99.90;;;;;;6224996;28;20476;-60
2021/09/07 02:03:09;;;;;;;8.73;7.83;;;16.50;99.90;;;;;;6219781;28;20485;-61
2021/09/07 02:06:12;;;;;;;9.50;8.20;;;16.50;99.90;;;;;;6206617;28;20551;-61
2021/09/07 02:09:15;;;;;;;8.30;7.50;;;16.50;99.90;;;;;;6203320;28;20484;-60
2021/09/07 02:12:20;;;;;;;8.43;7.10;;;16.50;99.90;;;;;;6198471;28;20479;-61
2021/09/07 02:15:23;;;;;;;9.57;8.57;;;16.50;99.90;;;;;;6203139;28;20484;-61
2021/09/07 02:18:26;;;;;;;9.33;7.80;;;16.50;99.90;;;;;;6203418;28;20465;-61
2021/09/07 02:21:29;;;;;;;9.23;8.33;;;16.40;99.90;;;;;;6203750;28;20793;-61
2021/09/07 02:24:33;;;;;;;7.63;6.93;;;16.40;99.90;;;;;;6202937;28;20476;-61
2021/09/07 02:27:37;;;;;;;10.03;7.97;;;16.40;99.90;;;;;;6203449;28;20972;-61
2021/09/07 02:30:40;;;;;;;8.00;7.20;;;16.40;99.90;;;;;;6203608;28;20488;-61
2021/09/07 02:33:44;;;;;;;8.33;7.53;;;16.30;99.90;;;;;;6203345;28;20500;-61
2021/09/07 02:36:47;;;;;;;8.13;7.33;;;16.30;99.90;;;;;;6203138;28;20562;-61
2021/09/07 02:39:50;;;;;;;8.73;7.87;;;16.30;99.90;;;;;;6203744;28;20469;-61
2021/09/07 02:42:54;;;;;;;9.73;8.30;;;16.30;99.90;;;;;;6203805;28;20495;-61
2021/09/07 02:45:57;;;;;;;11.93;9.00;;;16.30;99.90;;;;;;6202945;28;20468;-61
2021/09/07 02:49:01;;;;;;;11.03;9.93;;;16.20;99.90;;;;;;6202654;28;20913;-61
2021/09/07 02:52:04;;;;;;;11.67;9.10;;;16.30;99.90;;;;;;6202706;28;20834;-61
2021/09/07 02:55:08;;;;;;;9.47;8.57;;;16.20;99.90;;;;;;6202319;28;20830;-59
2021/09/07 02:58:13;;;;;;;9.27;7.63;;;16.20;99.90;;;;;;6202425;28;20491;-59
2021/09/07 03:01:16;;;;;;;9.97;8.27;;;16.20;99.90;;;;;;6202609;28;20480;-61
2021/09/07 03:04:20;;;;;;;10.20;7.83;;;16.00;99.90;;;;;;6201572;28;20829;-61
2021/09/07 03:07:23;;;;;;;8.47;7.67;;;16.00;99.90;;;;;;6202575;28;20469;-61
2021/09/07 03:10:26;;;;;;;9.87;8.17;;;16.00;99.90;;;;;;6201800;28;20488;-61
2021/09/07 03:13:31;;;;;;;10.03;8.23;;;16.00;99.90;;;;;;6201849;28;20484;-61
2021/09/07 03:16:34;;;;;;;8.53;7.63;;;16.00;99.90;;;;;;6201958;28;20477;-61
2021/09/07 03:19:40;;;;;;;8.93;7.97;;;15.90;99.90;;;;;;6201849;28;20535;-61
2021/09/07 03:22:43;;;;;;;7.90;7.03;;;15.90;99.90;;;;;;6201621;28;20465;-61
2021/09/07 03:25:46;;;;;;;9.33;8.40;;;15.90;99.90;;;;;;6201804;28;20780;-61
2021/09/07 03:28:51;;;;;;;9.33;8.23;;;15.90;99.90;;;;;;6201987;28;20495;-61
2021/09/07 03:31:54;;;;;;;9.30;8.30;;;15.90;99.90;;;;;;6202998;28;20468;-61
2021/09/07 03:34:57;;;;;;;9.17;8.20;;;15.80;99.90;;;;;;6225849;28;20440;-61
2021/09/07 03:38:00;;;;;;;8.67;7.77;;;15.80;99.90;;;;;;6226454;28;20483;-61
2021/09/07 03:41:03;;;;;;;10.13;8.40;;;15.80;99.90;;;;;;6222286;28;20464;-60
2021/09/07 03:44:08;;;;;;;8.23;7.43;;;15.80;99.90;;;;;;6218842;28;20472;-61
2021/09/07 03:47:11;;;;;;;10.37;7.83;;;15.70;99.90;;;;;;6196269;28;20475;-62
2021/09/07 03:50:15;;;;;;;8.83;8.10;;;15.70;99.90;;;;;;6204666;28;20480;-61
2021/09/07 03:53:18;;;;;;;9.23;8.33;;;15.70;99.90;;;;;;6207090;28;20488;-60
2021/09/07 03:56:21;;;;;;;9.33;8.40;;;15.70;99.90;;;;;;6201024;28;20779;-61
2021/09/07 03:59:26;;;;;;;11.13;8.10;;;15.70;99.90;;;;;;6201609;28;20479;-60
2021/09/07 04:02:29;;;;;;;9.27;8.37;;;15.60;99.90;;;;;;6201441;28;20487;-61
2021/09/07 04:05:32;;;;;;;9.50;8.50;;;15.60;99.90;;;;;;6201309;28;20772;-61
2021/09/07 04:08:35;;;;;;;12.20;10.93;;;15.70;99.90;;;;;;6200683;28;20928;-60
2021/09/07 04:11:39;;;;;;;9.93;8.17;;;15.60;99.90;;;;;;6201354;28;20484;-60
2021/09/07 04:14:43;;;;;;;8.13;7.43;;;15.70;99.90;;;;;;6201589;28;20473;-60
2021/09/07 04:17:46;;;;;;;8.03;7.23;;;15.70;99.90;;;;;;6206825;28;20480;-60
2021/09/07 04:20:53;;;;;;;8.40;7.60;;;15.70;99.90;;;;;;6201639;28;20472;-60
2021/09/07 04:23:56;;;;;;;9.10;8.20;;;15.70;99.90;;;;;;6206352;28;20488;-61
2021/09/07 04:26:59;;;;;;;9.60;8.50;;;15.70;99.90;;;;;;6206063;28;20476;-60
2021/09/07 04:30:04;;;;;;;9.43;8.53;;;15.60;99.90;;;;;;6206070;28;20475;-61
2021/09/07 04:33:08;;;;;;;8.47;7.47;;;15.60;99.90;;;;;;6206130;28;20813;-61
2021/09/07 04:36:11;;;;;;;11.23;8.50;;;15.60;99.90;;;;;;6206258;28;20846;-62
2021/09/07 04:39:14;;;;;;;12.27;8.43;;;15.40;99.90;;;;;;6205877;28;20480;-60
2021/09/07 04:42:17;;;;;;;9.00;8.03;;;15.40;99.90;;;;;;6205881;28;20476;-60
2021/09/07 04:45:22;;;;;;;9.23;8.20;;;15.40;99.90;;;;;;6206031;28;20472;-60
2021/09/07 04:48:25;;;;;;;9.40;8.03;;;15.50;99.90;;;;;;6205391;28;20769;-60
2021/09/07 04:51:28;;;;;;;9.07;8.17;;;15.50;99.90;;;;;;6205716;28;20477;-59
2021/09/07 04:54:31;;;;;;;9.13;8.13;;;15.50;99.90;;;;;;6205248;28;20476;-61
2021/09/07 04:57:35;;;;;;;10.43;8.47;;;15.50;99.90;;;;;;6205377;28;20480;-60
2021/09/07 05:00:39;;;;;;;9.30;8.40;;;15.60;99.90;;;;;;6205358;28;20472;-60
2021/09/07 05:03:42;;;;;;;13.10;8.60;;;15.60;99.90;;;;;;6205580;28;20468;-60
2021/09/07 05:06:46;;;;;;;9.50;8.60;;;15.50;99.90;;;;;;6205251;28;20499;-59
2021/09/07 05:09:49;;;;;;;10.53;9.43;;;15.50;99.90;;;;;;6204772;28;20833;-60
2021/09/07 05:12:52;;;;;;;11.20;8.73;;;15.60;99.90;;;;;;6205243;28;20488;-60
2021/09/07 05:15:57;;;;;;;8.17;7.30;;;15.60;99.90;;;;;;6204841;28;20484;-61
2021/09/07 05:19:00;;;;;;;9.13;7.73;;;15.60;99.90;;;;;;6204660;28;20484;-61
2021/09/07 05:22:03;;;;;;;8.50;7.70;;;15.60;99.90;;;;;;6204934;28;20477;-62
2021/09/07 05:25:08;;;;;;;9.30;8.17;;;15.70;99.90;;;;;;6200471;28;20480;-61
2021/09/07 05:28:12;;;;;;;10.47;8.87;;;15.70;99.90;;;;;;6203831;28;20473;-61
2021/09/07 05:31:17;;;;;;;11.40;9.47;;;15.80;99.90;;;;;;6204844;28;20492;-61
2021/09/07 05:34:21;;;;;;;11.00;9.50;;;15.80;99.90;;;;;;6204629;28;20469;-62
2021/09/07 05:37:24;;;;;;;9.83;8.80;;;15.90;99.90;;;;;;6204359;28;20813;-60
2021/09/07 05:40:27;;;;;;;10.97;9.30;;;15.90;99.90;;;;;;6203792;28;20468;-60
2021/09/07 05:43:30;;;;;;;9.80;8.70;;;16.00;99.90;;;;;;6204132;28;20496;-61
2021/09/07 05:46:35;;;;;;;12.27;8.83;;;16.20;99.90;;;;;;6204205;28;20783;-61
2021/09/07 05:49:38;;;;;;;9.43;8.43;;;16.30;99.90;;;;;;6204205;28;20469;-60
2021/09/07 05:52:41;;;;;;;10.80;9.00;;;16.40;99.90;;;;;;6204099;28;20473;-61
2021/09/07 05:55:45;;;;;;;10.47;9.37;;;16.50;99.90;;;;;;6203864;28;20468;-60
2021/09/07 05:58:48;;;;;;;10.40;8.43;;;16.60;99.90;;;;;;6203484;28;20575;-61
2021/09/07 06:01:54;;;;;;;11.93;8.63;;;16.60;99.90;;;;;;6204205;28;20469;-60
2021/09/07 06:04:58;;;;;;;12.83;10.60;;;16.70;99.90;;;;;;6203819;28;20459;-61
2021/09/07 06:08:01;;;;;;;9.20;8.10;;;16.80;99.90;;;;;;6203641;28;20441;-61
2021/09/07 06:11:06;;;;;;;10.47;9.37;;;17.00;99.90;;;;;;6203549;28;20821;-61
2021/09/07 06:14:09;;;;;;;9.93;9.03;;;17.10;99.90;;;;;;6203673;28;20484;-60
2021/09/07 06:17:14;;;;;;;11.63;9.47;;;17.30;99.90;;;;;;6203958;28;20483;-62
2021/09/07 06:20:17;;;;;;;12.50;10.20;;;17.50;99.90;;;;;;6203515;28;20547;-61
2021/09/07 06:23:20;;;;;;;12.40;9.33;;;17.90;99.90;;;;;;6203252;28;20491;-61
2021/09/07 06:26:23;;;;;;;13.03;9.10;;;19.10;98.70;;;;;;6203455;28;20532;-61
2021/09/07 06:29:27;;;;;;;14.83;10.37;;;20.70;96.30;;;;;;6203193;28;20233;-61
2021/09/07 06:32:31;;;;;;;14.47;9.57;;;21.90;93.20;;;;;;6203071;28;20319;-61
2021/09/07 06:35:34;;;;;;;12.00;9.73;;;22.80;90.80;;;;;;6202655;28;20309;-61
2021/09/07 06:38:37;;;;;;;11.20;10.10;;;23.40;87.50;;;;;;6201905;28;20592;-62
2021/09/07 06:41:41;;;;;;;14.90;9.67;;;24.70;80.80;;;;;;6202549;28;20237;-60
2021/09/07 06:44:44;;;;;;;12.20;10.30;;;25.20;75.90;;;;;;6202906;28;20232;-60
2021/09/07 06:47:48;;;;;;;11.23;10.00;;;25.40;72.30;;;;;;6202832;28;20561;-60
2021/09/07 06:50:51;;;;;;;12.40;10.60;;;24.90;72.00;;;;;;6202556;28;20244;-61
2021/09/07 06:53:55;;;;;;;12.70;9.47;;;25.00;71.60;;;;;;6202899;28;20241;-61
2021/09/07 06:56:58;;;;;;;9.13;8.20;;;26.60;67.90;;;;;;6202445;28;20233;-61
2021/09/07 07:00:03;;;;;;;10.30;9.30;;;28.30;62.40;;;;;;6202147;28;20577;-61
2021/09/07 07:03:08;;;;;;;11.60;10.50;;;29.00;57.70;;;;;;6202963;28;20229;-61
2021/09/07 07:06:12;;;;;;;12.73;9.40;;;30.10;54.60;;;;;;6202288;28;20542;-61
2021/09/07 07:09:15;;;;;;;9.73;8.83;;;30.40;52.30;;;;;;6202457;28;20236;-62
2021/09/07 07:12:18;;;;;;;10.57;9.63;;;29.90;51.80;;;;;;6202026;28;20232;-61
2021/09/07 07:15:21;;;;;;;10.80;9.57;;;29.40;51.80;;;;;;6202644;28;20224;-62
2021/09/07 07:18:26;;;;;;;11.20;10.20;;;29.30;51.60;;;;;;6202400;28;20224;-62
2021/09/07 07:21:29;;;;;;;10.37;9.30;;;29.10;51.60;;;;;;6201931;28;20247;-62
2021/09/07 07:24:32;;;;;;;11.70;10.50;;;28.50;52.20;;;;;;6202173;28;20229;-62
2021/09/07 07:27:38;;;;;;;10.27;9.30;;;28.30;53.50;;;;;;6201924;28;20540;-62
2021/09/07 07:30:41;;;;;;;11.13;10.13;;;30.40;50.90;;;;;;6201342;28;20229;-62
2021/09/07 07:33:46;;;;;;;12.47;9.67;;;31.60;47.40;;;;;;6201951;28;20260;-62
2021/09/07 07:36:53;;;;;;;11.40;10.05;;;32.00;46.30;;;;;;6201836;28;20693;-62
2021/09/07 07:39:57;;;;;;;13.05;9.40;;;32.50;45.00;;;;;;6201400;28;20241;-62
2021/09/07 07:43:01;;;;;;;10.93;9.77;;;33.90;42.80;;;;;;6201907;28;20703;-63
2021/09/07 07:46:04;;;;;;;9.65;8.70;;;35.30;40.40;;;;;;6201375;28;20720;-62
2021/09/07 07:49:09;;;;;;;10.55;9.65;;;35.80;38.00;;;;;;6201378;28;20579;-62
2021/09/07 07:52:12;;;;;;;9.10;8.30;;;34.60;38.20;;;;;;6200924;28;20590;-62
2021/09/07 07:55:15;;;;;;;10.68;8.85;;;33.80;39.00;;;;;;6201569;28;20224;-62
2021/09/07 07:58:18;;;;;;;10.80;8.43;;;32.80;40.00;;;;;;6201560;28;20241;-62
2021/09/07 08:01:23;;;;;;;9.40;8.50;;;32.50;41.10;;;;;;6201413;28;20680;-61
2021/09/07 08:04:28;;;;;;;11.48;9.93;;;34.30;39.10;;;;;;6201535;28;20233;-63
2021/09/07 08:07:31;;;;;;;9.68;8.77;;;36.90;36.10;;;;;;6200934;28;20299;-62
2021/09/07 08:10:34;;;;;;;12.07;9.50;;;38.60;33.90;;;;;;6200906;28;20680;-62
2021/09/07 08:13:38;;;;;;;11.55;10.35;;;40.30;31.40;;;;;;6201169;28;20236;-62
2021/09/07 08:16:41;;;;;;;10.10;9.32;;;41.70;29.60;;;;;;6201139;28;20567;-62
2021/09/07 08:19:45;;;;;;;12.40;9.63;;;41.20;28.30;;;;;;6201539;28;20553;-62
2021/09/07 08:22:49;;;;;;;12.73;9.23;;;41.40;28.80;;;;;;6201183;28;20275;-62
2021/09/07 08:25:52;;;;;;;10.52;9.38;;;42.40;27.50;;;;;;6201319;28;20225;-62
2021/09/07 08:28:55;;;;;;;9.32;8.32;;;43.20;27.00;;;;;;6200935;28;20215;-62
2021/09/07 08:31:58;;;;;;;9.27;8.48;;;43.30;26.30;;;;;;6200571;28;20673;-62
2021/09/07 08:35:03;;;;;;;10.45;9.50;;;41.10;26.90;;;;;;6196789;28;20204;-62
2021/09/07 08:38:07;;;;;;;13.38;12.32;;;38.20;29.10;;;;;;6200519;28;20241;-64
2021/09/07 08:41:10;;;;;;;9.70;8.80;;;36.50;30.90;;;;;;6200466;28;20731;-64
2021/09/07 08:44:17;;;;;;;9.88;8.75;;;36.40;32.20;;;;;;6200725;28;20233;-62
2021/09/07 08:47:20;;;;;;;9.50;8.70;;;39.20;30.10;;;;;;6200950;28;20229;-63
2021/09/07 08:50:25;;;;;;;10.73;9.48;;;42.10;28.30;;;;;;6200928;28;20240;-63
2021/09/07 08:53:28;;;;;;;9.70;8.93;;;44.30;26.30;;;;;;6201825;28;20231;-64
2021/09/07 08:56:32;;;;;;;10.48;9.48;;;46.20;24.80;;;;;;6201841;28;20244;-62
2021/09/07 08:59:35;;;;;;;9.35;8.20;;;46.00;24.40;;;;;;6199351;28;20228;-62
2021/09/07 09:02:40;;;;;;;9.50;8.60;;;44.60;24.30;;;;;;6203918;28;20230;-62
2021/09/07 09:05:47;;;;;;;8.82;8.13;;;45.70;24.50;;;;;;6210087;28;20247;-63
2021/09/07 09:08:50;;;;;;;9.35;8.32;;;47.60;23.70;;;;;;6204691;28;20229;-65
2021/09/07 09:11:54;;;;;;;8.88;8.18;;;49.30;21.90;;;;;;6204867;28;20678;-64
2021/09/07 09:14:58;;;;;;;9.07;8.38;;;49.60;20.70;;;;;;6203776;28;20304;-63
2021/09/07 09:18:12;;;;;;;10.35;7.97;;;49.10;20.90;;;;;;6202915;28;20225;-64
2021/09/07 09:21:24;;;;;;;10.32;9.60;;;47.20;21.50;;;;;;6203048;28;20245;-63
2021/09/07 09:24:27;;;;;;;8.32;7.53;;;46.10;22.60;;;;;;6199965;28;20247;-62
2021/09/07 09:27:30;;;;;;;7.82;7.22;;;46.30;22.70;;;;;;6200101;28;20232;-70
2021/09/07 09:30:37;;;;;;;9.57;8.88;;;46.20;21.70;;;;;;6199298;28;20253;-63
2021/09/07 09:33:40;;;;;;;9.13;8.45;;;44.30;22.90;;;;;;6200983;28;20232;-63
2021/09/07 09:36:56;;;;;;;8.55;7.88;;;44.00;23.60;;;;;;6202098;28;20228;-63
2021/09/07 09:40:00;;;;;;;8.70;8.05;;;44.40;23.30;;;;;;6200950;28;20551;-63
2021/09/07 09:43:21;;;;;;;10.18;9.38;;;43.10;23.70;;;;;;6197569;28;20246;-63
2021/09/07 09:46:27;;;;;;;8.30;7.65;;;43.40;23.40;;;;;;6200822;28;20535;-63
2021/09/07 09:49:31;;;;;;;8.52;7.82;;;44.00;23.20;;;;;;6201392;28;20664;-63
2021/09/07 09:52:37;;;;;;;9.00;8.40;;;45.30;22.90;;;;;;6196425;28;20232;-63
2021/09/07 09:55:40;;;;;;;8.27;7.68;;;45.20;22.60;;;;;;6201694;28;20566;-63
2021/09/07 09:58:43;;;;;;;8.32;7.53;;;43.90;23.30;;;;;;6202010;28;20245;-63
2021/09/07 10:01:47;;;;;;;9.05;8.32;;;43.60;23.80;;;;;;6199132;28;20237;-63
2021/09/07 10:04:51;;;;;;;9.00;8.40;;;42.50;24.50;;;;;;6200384;28;20256;-62
2021/09/07 10:07:55;;;;;;;8.57;7.85;;;41.40;25.10;;;;;;6201024;28;20203;-62
2021/09/07 10:11:01;;;;;;;9.07;8.20;;;40.00;26.00;;;;;;6192255;28;20249;-62
2021/09/07 10:14:12;;;;;;;8.98;8.27;;;38.80;26.80;;;;;;6201522;28;20637;-62
2021/09/07 10:17:27;;;;;;;8.98;8.18;;;37.30;28.20;;;;;;6201828;28;20514;-63
2021/09/07 10:20:47;;;;;;;9.75;8.93;;;36.20;29.20;;;;;;6201344;28;20533;-62
2021/09/07 10:23:59;;;;;;;9.43;8.48;;;35.00;30.90;;;;;;6200038;28;20233;-61
2021/09/07 10:27:04;;;;;;;8.85;8.15;;;34.40;32.20;;;;;;6194084;28;20238;-63
2021/09/07 10:30:08;;;;;;;9.07;8.35;;;33.90;33.70;;;;;;6197335;28;20569;-65
2021/09/07 10:33:30;;;;;;;9.82;8.55;;;33.10;34.90;;;;;;6195135;28;20225;-62
2021/09/07 10:36:36;;;;;;;7.93;7.22;;;32.50;35.20;;;;;;6201331;28;20237;-63
2021/09/07 10:39:43;;;;;;;8.40;7.63;;;31.90;35.60;;;;;;6196478;28;20232;-64
2021/09/07 10:42:53;;;;;;;8.98;8.27;;;31.20;36.50;;;;;;6196342;28;20229;-63
2021/09/07 10:45:57;;;;;;;8.57;7.78;;;31.20;37.10;;;;;;6191920;28;20232;-63
2021/09/07 10:49:15;;;;;;;8.00;7.30;;;30.70;36.60;;;;;;6189086;28;20728;-64
2021/09/07 10:52:21;;;;;;;8.55;7.70;;;30.60;36.30;;;;;;6189491;28;20237;-63
2021/09/07 10:55:37;;;;;;;8.37;7.33;;;30.70;35.20;;;;;;6187493;28;20316;-64
2021/09/07 10:58:40;;;;;;;7.93;7.18;;;29.80;34.90;;;;;;6199157;28;20221;-64
2021/09/07 11:01:43;;;;;;;7.60;6.90;;;29.70;35.40;;;;;;6199910;28;20224;-64
2021/09/07 11:04:53;;;;;;;7.97;7.27;;;29.80;34.90;;;;;;6199486;28;20252;-61
2021/09/07 11:08:04;;;;;;;7.97;7.20;;;28.80;37.00;;;;;;6196275;28;20228;-64
2021/09/07 11:11:28;;;;;;;8.00;6.70;;;29.30;36.70;;;;;;6199846;28;20274;-64
2021/09/07 11:14:32;;;;;;;7.63;6.90;;;30.10;35.60;;;;;;6197653;28;20872;-64
2021/09/07 11:17:35;;;;;;;7.57;6.87;;;30.10;33.70;;;;;;6199116;28;20232;-65
2021/09/07 11:20:41;;;;;;;8.23;6.97;;;30.60;34.10;;;;;;6199451;28;20547;-64
2021/09/07 11:23:44;;;;;;;8.25;7.50;;;30.40;34.80;;;;;;6198867;28;20656;-64
2021/09/07 11:26:58;;;;;;;20.53;9.20;;;30.10;35.30;;;;;;6198191;28;20225;-64
2021/09/07 11:30:21;;;;;;;7.72;7.00;;;30.20;36.50;;;;;;6200034;28;20235;-64
2021/09/07 11:33:27;;;;;;;8.30;7.57;;;30.30;36.90;;;;;;6195597;28;20547;-64
2021/09/07 11:36:33;;;;;;;9.57;8.50;;;30.50;36.30;;;;;;6198212;28;20231;-64
2021/09/07 11:39:36;;;;;;;8.77;7.95;;;30.40;36.10;;;;;;6200164;28;20236;-65
2021/09/07 11:42:48;;;;;;;8.38;7.68;;;30.30;36.00;;;;;;6197025;28;20671;-64
2021/09/07 11:46:04;;;;;;;7.70;7.00;;;30.30;36.00;;;;;;6198351;28;20225;-66
2021/09/07 11:49:09;;;;;;;8.43;7.47;;;30.30;34.90;;;;;;6199906;28;20229;-65
2021/09/07 11:52:12;;;;;;;8.53;7.50;;;30.40;34.70;;;;;;6199388;28;20225;-65
2021/09/07 11:55:51;;;;;;;10.75;7.22;;;30.60;34.30;;;;;;6199395;28;20294;-65
2021/09/07 11:59:09;;;;;;;11.07;7.50;;;30.80;33.90;;;;;;6113194;28;20232;-64
2021/09/07 12:02:14;;;;;;;7.47;6.87;;;30.10;35.60;;;;;;6119441;28;20242;-64
2021/09/07 12:05:17;;;;;;;8.20;7.37;;;29.80;36.50;;;;;;6199915;28;20228;-64
2021/09/07 12:08:21;;;;;;;8.37;7.57;;;29.80;35.60;;;;;;6199824;28;20221;-65
2021/09/07 12:11:32;;;;;;;8.93;8.03;;;29.70;35.20;;;;;;6199090;28;20236;-64
2021/09/07 12:14:39;;;;;;;7.63;7.00;;;29.80;35.50;;;;;;6199240;28;20291;-64
2021/09/07 12:17:45;;;;;;;7.73;7.10;;;29.50;35.90;;;;;;6200225;28;20232;-61
2021/09/07 12:20:48;;;;;;;7.43;6.73;;;28.90;37.80;;;;;;6201672;28;20243;-60
2021/09/07 12:23:53;;;;;;;8.23;7.53;;;28.90;37.50;;;;;;6198466;28;20239;-61
2021/09/07 12:26:56;;;;;;;8.30;7.60;;;29.00;37.60;;;;;;6199136;28;20224;-61
2021/09/07 12:30:20;;;;;;;7.73;7.13;;;28.20;38.80;;;;;;6193321;28;20616;-61
2021/09/07 12:33:25;;;;;;;8.53;7.10;;;28.00;39.40;;;;;;6199484;28;20239;-61
2021/09/07 12:36:43;;;;;;;8.10;7.30;;;28.10;39.40;;;;;;6196683;28;20665;-63
2021/09/07 12:39:46;;;;;;;9.20;7.37;;;28.20;39.70;;;;;;6204150;28;20556;-60
2021/09/07 12:42:50;;;;;;;8.13;6.97;;;28.10;39.50;;;;;;6196033;28;20251;-60
2021/09/07 12:46:00;;;;;;;8.77;7.70;;;27.60;39.90;;;;;;6203675;28;20232;-60
2021/09/07 12:49:03;;;;;;;7.77;7.07;;;27.10;41.10;;;;;;6203361;28;20577;-63
2021/09/07 12:52:07;;;;;;;8.37;7.50;;;26.90;41.60;;;;;;6204433;28;20276;-63
2021/09/07 12:55:11;;;;;;;8.27;7.57;;;26.80;41.50;;;;;;6192475;28;20695;-60
2021/09/07 12:58:14;;;;;;;7.27;6.67;;;26.90;41.80;;;;;;6200144;28;20229;-60
2021/09/07 13:01:20;;;;;;;10.97;8.03;;;27.10;41.40;;;;;;6197128;28;20240;-60
2021/09/07 13:04:23;;;;;;;8.50;7.60;;;27.10;41.20;;;;;;6200726;28;20229;-60
2021/09/07 13:07:26;;;;;;;8.47;7.67;;;27.30;41.40;;;;;;6202570;28;20711;-60
2021/09/07 13:10:30;;;;;;;9.00;8.20;;;27.40;41.90;;;;;;6193235;28;20245;-60
2021/09/07 13:13:33;;;;;;;8.50;7.70;;;27.50;42.00;;;;;;6191490;28;20264;-59
2021/09/07 13:16:38;;;;;;;7.53;6.73;;;27.60;41.90;;;;;;6192607;28;20711;-58
2021/09/07 13:19:41;;;;;;;8.40;7.70;;;27.20;42.40;;;;;;6202916;28;20245;-60
2021/09/07 13:22:44;;;;;;;7.90;7.10;;;27.00;43.40;;;;;;6203060;28;20244;-58
2021/09/07 13:25:47;;;;;;;8.07;7.27;;;26.70;43.40;;;;;;6202809;28;20220;-61
2021/09/07 13:28:51;;;;;;;8.30;7.50;;;26.80;42.70;;;;;;6203043;28;20228;-59
2021/09/07 13:32:08;;;;;;;7.30;6.70;;;26.90;42.30;;;;;;6201713;28;20288;-59
2021/09/07 13:35:12;;;;;;;8.50;7.23;;;27.10;42.30;;;;;;6200002;28;20260;-60
2021/09/07 13:38:17;;;;;;;8.60;7.80;;;27.20;41.80;;;;;;6200879;28;20229;-59
2021/09/07 13:41:20;;;;;;;9.20;7.60;;;27.10;42.10;;;;;;6207786;23;20232;-60
2021/09/07 13:44:23;;;;;;;9.37;7.50;;;26.90;42.80;;;;;;6203065;28;20225;-60
2021/09/07 13:47:28;;;;;;;14.03;8.60;;;27.00;43.00;;;;;;6202362;28;20252;-60
2021/09/07 13:50:31;;;;;;;8.40;7.70;;;26.90;42.80;;;;;;6202309;28;20233;-59
2021/09/07 13:53:34;;;;;;;8.80;7.90;;;26.90;43.30;;;;;;6202590;28;20228;-61
2021/09/07 13:56:38;;;;;;;8.43;7.63;;;27.00;43.40;;;;;;6198601;28;20533;-59
2021/09/07 13:59:41;;;;;;;8.43;7.63;;;26.90;43.20;;;;;;6202340;28;20784;-57
2021/09/07 14:02:45;;;;;;;8.57;7.80;;;26.10;44.40;;;;;;6192941;28;20232;-62
2021/09/07 14:05:49;;;;;;;8.33;7.53;;;26.00;44.80;;;;;;6199373;28;20556;-60
2021/09/07 14:08:52;;;;;;;7.77;7.07;;;26.00;44.80;;;;;;6191000;28;20229;-62
2021/09/07 14:11:55;;;;;;;8.27;7.57;;;26.20;44.80;;;;;;6196678;28;20272;-59
2021/09/07 14:14:59;;;;;;;9.80;8.80;;;26.30;44.70;;;;;;6197772;28;20229;-60
2021/09/07 14:18:08;;;;;;;12.97;9.00;;;26.30;44.70;;;;;;6190562;28;20561;-60
2021/09/07 14:21:12;;;;;;;8.80;7.77;;;26.30;44.70;;;;;;6201436;28;20263;-62
2021/09/07 14:24:16;;;;;;;10.40;8.27;;;26.40;44.80;;;;;;6195205;28;20233;-60
2021/09/07 14:27:19;;;;;;;8.30;7.13;;;26.50;45.10;;;;;;6190013;28;20618;-60
2021/09/07 14:30:22;;;;;;;9.40;7.80;;;26.40;45.30;;;;;;6190255;28;20245;-58
2021/09/07 14:33:27;;;;;;;10.43;8.03;;;26.30;45.30;;;;;;6191345;28;20233;-58
2021/09/07 14:36:30;;;;;;;8.20;7.30;;;25.90;46.30;;;;;;6194399;28;20658;-59
2021/09/07 14:39:33;;;;;;;8.13;7.40;;;25.60;46.90;;;;;;6201084;28;20232;-62
2021/09/07 14:42:37;;;;;;;8.20;7.27;;;25.50;47.20;;;;;;6200633;28;20240;-61
2021/09/07 14:45:40;;;;;;;7.77;7.07;;;25.50;47.00;;;;;;6194736;28;20237;-61
2021/09/07 14:48:44;;;;;;;7.67;7.07;;;25.40;46.60;;;;;;6199452;28;20291;-60
2021/09/07 14:51:48;;;;;;;8.43;7.63;;;25.20;46.40;;;;;;6192295;28;20238;-62
2021/09/07 14:54:52;;;;;;;8.67;7.90;;;24.80;47.50;;;;;;6201018;28;20240;-63
2021/09/07 14:57:55;;;;;;;9.20;8.37;;;24.50;48.00;;;;;;6194073;28;20244;-61
2021/09/07 15:00:58;;;;;;;8.90;8.10;;;24.50;48.40;;;;;;6199979;28;20252;-62
2021/09/07 15:04:03;;;;;;;7.90;7.10;;;24.60;48.30;;;;;;6185318;28;20547;-60
2021/09/07 15:07:06;;;;;;;8.30;7.47;;;24.60;48.70;;;;;;6201450;28;20582;-62
2021/09/07 15:10:09;;;;;;;8.47;7.67;;;24.50;48.70;;;;;;6197971;28;20229;-64
2021/09/07 15:13:15;;;;;;;8.70;7.90;;;24.50;49.30;;;;;;6191297;28;20323;-60
2021/09/07 15:16:18;;;;;;;9.97;8.27;;;24.20;49.70;;;;;;6191577;28;20241;-60
2021/09/07 15:19:23;;;;;;;9.00;8.10;;;24.10;50.30;;;;;;6200676;28;20228;-60
2021/09/07 15:22:26;;;;;;;8.67;7.87;;;24.10;50.70;;;;;;6198899;28;20240;-61
2021/09/07 15:25:30;;;;;;;8.40;7.70;;;24.20;50.70;;;;;;6200349;28;20240;-63
2021/09/07 15:28:33;;;;;;;8.17;7.47;;;24.40;50.40;;;;;;6198722;28;20700;-62
2021/09/07 15:31:37;;;;;;;8.70;7.93;;;24.30;50.10;;;;;;6189273;28;20574;-62
2021/09/07 15:34:42;;;;;;;8.63;7.83;;;24.20;50.20;;;;;;6187007;28;20233;-61
2021/09/07 15:37:45;;;;;;;8.23;7.33;;;24.20;50.70;;;;;;6197242;28;20244;-62
2021/09/07 15:40:49;;;;;;;8.43;7.73;;;24.20;51.10;;;;;;6194423;28;20234;-61
2021/09/07 15:43:52;;;;;;;8.20;7.40;;;24.30;51.20;;;;;;6186787;28;20237;-63
2021/09/07 15:46:56;;;;;;;8.40;7.63;;;24.30;51.50;;;;;;6185497;28;20218;-63
2021/09/07 15:50:00;;;;;;;9.33;8.50;;;24.30;51.50;;;;;;6186278;28;20248;-62
2021/09/07 15:53:04;;;;;;;8.90;8.00;;;24.40;51.80;;;;;;6198534;28;20232;-63
2021/09/07 15:56:08;;;;;;;8.30;7.50;;;24.40;52.10;;;;;;6199894;28;20213;-63